Bashaw, Canada
Current Conditions -  °F | °C
As of 9:47 PM on Thursday 18 Dec 2014 (Local Time) from CYQF Reporting Station
Haze Haze  
Wind Chill: 12°   Ceiling: Unl
Heat Index: 12°   Visibility: 6mi
Dew Point: 12°   Wind: 2mph
Humidity: 100%   Direction: NA
Pressure: 29.79"   Gusts: NA
Location:  52.58°N, 112.97°W
Report Text: CYQF 190447Z VRB02KT 6SM BR SKC M11/M11 A2979 RMK FG2 VIS E-SE 15 VIS W-NW 1/2 SLP152
Loading
Personal Weather Stations






























Interactive Weather Map New forecast layout! Learn more

10-Day Weather Forecast

Advertisements
Track Severe Weather on mobile